Weather at Assuta Helipad

Public forecast

Using degrees Celsius for public forecast. Weather courtesy of forecast.io.

Closest aviation weather report (METAR) to Assuta Helipad

Closest report is Ben Gurion International Airport, 18.3 nm (33.9 km) NE.

2024/04/12 16:50 (retrieved 31 minutes ago)

LLBG 121650Z 34006KT 9999 FEW025 20/15 Q1015 NOSIG

Closest aviation forecast (TAF) to Assuta Helipad

Closest forecast is Ben Gurion International Airport, 18.3 nm (33.9 km) NE.

2024/04/12 12:06 (retrieved 5 hours ago)

TAF LLBG 121102Z 1212/1312 30010KT 9999 FEW030 BECMG 1215/1217 VRB04KT SCT025 TEMPO 1221/1305 8000 BKN018 BECMG 1308/1310 30010KT TX23/1212Z TN15/1304Z